createdAt,value
2018-11-04T00:01:28.322Z,8.30
2018-11-04T00:03:56.847Z,8.20
2018-11-04T00:06:25.347Z,8.20
2018-11-04T00:08:53.870Z,8.30
2018-11-04T00:11:22.358Z,8.30
2018-11-04T00:13:50.931Z,8.30
2018-11-04T00:16:19.450Z,8.30
2018-11-04T00:18:47.944Z,8.40
2018-11-04T00:21:16.431Z,8.40
2018-11-04T00:23:44.943Z,8.40
2018-11-04T00:26:13.458Z,8.40
2018-11-04T00:28:41.959Z,8.40
2018-11-04T00:31:10.474Z,8.40
2018-11-04T00:33:38.974Z,8.40
2018-11-04T00:36:07.474Z,8.40
2018-11-04T00:38:35.989Z,8.40
2018-11-04T00:41:04.637Z,8.40
2018-11-04T00:43:33.133Z,8.40
2018-11-04T00:46:01.710Z,8.50
2018-11-04T00:48:30.276Z,8.50
2018-11-04T00:50:58.804Z,8.40
2018-11-04T00:53:27.335Z,8.40
2018-11-04T00:55:56.393Z,8.40
2018-11-04T00:58:25.901Z,8.40
2018-11-04T01:00:54.689Z,8.40
2018-11-04T01:03:23.216Z,8.50
2018-11-04T01:05:51.800Z,8.50
2018-11-04T01:08:20.416Z,8.50
2018-11-04T01:10:48.924Z,8.50
2018-11-04T01:13:17.413Z,8.40
2018-11-04T01:15:45.888Z,8.40
2018-11-04T01:18:14.384Z,8.40
2018-11-04T01:20:42.856Z,8.40
2018-11-04T01:23:11.376Z,8.40
2018-11-04T01:25:39.948Z,8.50
2018-11-04T01:28:08.440Z,8.50
2018-11-04T01:30:36.928Z,8.50
2018-11-04T01:33:05.948Z,8.50
2018-11-04T01:35:34.468Z,8.50
2018-11-04T01:38:02.992Z,8.50
2018-11-04T01:40:31.602Z,8.60
2018-11-04T01:43:00.132Z,8.60
2018-11-04T01:45:28.671Z,8.60
2018-11-04T01:47:57.191Z,8.60
2018-11-04T01:50:25.671Z,8.60
2018-11-04T01:52:54.175Z,8.60
2018-11-04T01:55:22.648Z,8.60
2018-11-04T01:57:51.220Z,8.60
2018-11-04T02:00:19.691Z,8.60
2018-11-04T02:02:48.227Z,8.60
2018-11-04T02:05:16.771Z,8.60
2018-11-04T02:07:45.268Z,8.60
2018-11-04T02:10:14.849Z,8.60
2018-11-04T02:12:43.351Z,8.60
2018-11-04T02:17:32.971Z,8.60
2018-11-04T02:20:01.469Z,8.50
2018-11-04T02:22:29.987Z,8.60
2018-11-04T02:24:58.607Z,8.60
2018-11-04T02:27:27.183Z,8.60
2018-11-04T02:29:55.676Z,8.60
2018-11-04T02:32:24.194Z,8.60
2018-11-04T02:34:52.683Z,8.60
2018-11-04T02:37:21.169Z,8.60
2018-11-04T02:39:49.729Z,8.70
2018-11-04T02:42:18.211Z,8.70
2018-11-04T02:44:46.735Z,8.70
2018-11-04T02:47:15.244Z,8.70
2018-11-04T02:49:43.767Z,8.70
2018-11-04T02:52:12.359Z,8.70
2018-11-04T02:54:40.851Z,8.70
2018-11-04T02:57:09.323Z,8.70
2018-11-04T02:59:37.835Z,8.70
2018-11-04T03:02:06.911Z,8.70
2018-11-04T03:04:35.359Z,8.70
2018-11-04T03:07:03.903Z,8.70
2018-11-04T03:09:32.403Z,8.70
2018-11-04T03:12:00.906Z,8.70
2018-11-04T03:14:29.406Z,8.70
2018-11-04T03:16:57.896Z,8.70
2018-11-04T03:19:26.395Z,8.70
2018-11-04T03:21:54.910Z,8.70
2018-11-04T03:24:23.402Z,8.70
2018-11-04T03:26:51.914Z,8.70
2018-11-04T03:29:20.431Z,8.70
2018-11-04T03:31:48.955Z,8.70
2018-11-04T03:34:17.451Z,8.70
2018-11-04T03:36:46.010Z,8.70
2018-11-04T03:39:14.494Z,8.70
2018-11-04T03:41:43.310Z,8.70
2018-11-04T03:44:12.110Z,8.70
2018-11-04T03:46:40.623Z,8.70
2018-11-04T03:49:09.702Z,8.70
2018-11-04T03:51:38.346Z,8.70
2018-11-04T03:54:06.974Z,8.70
2018-11-04T03:56:35.670Z,8.70
2018-11-04T03:59:04.266Z,8.70
2018-11-04T04:01:32.819Z,8.70
2018-11-04T04:04:01.414Z,8.70
2018-11-04T04:06:29.938Z,8.70
2018-11-04T04:08:58.493Z,8.70
2018-11-04T04:11:26.992Z,8.70
2018-11-04T04:13:55.513Z,8.70
2018-11-04T04:16:24.070Z,8.70
2018-11-04T04:18:52.595Z,8.70
2018-11-04T04:21:21.141Z,8.70
2018-11-04T04:23:49.653Z,8.80
2018-11-04T04:26:18.187Z,8.70
2018-11-04T04:28:46.717Z,8.70
2018-11-04T04:31:15.222Z,8.70
2018-11-04T04:33:43.741Z,8.80
2018-11-04T04:36:12.245Z,8.80
2018-11-04T04:38:40.710Z,8.80
2018-11-04T04:41:09.196Z,8.80
2018-11-04T04:43:37.685Z,8.80
2018-11-04T04:46:06.221Z,8.80
2018-11-04T04:48:34.696Z,8.80
2018-11-04T04:51:03.197Z,8.80
2018-11-04T04:53:31.701Z,8.80
2018-11-04T04:56:00.205Z,8.80
2018-11-04T04:58:28.724Z,8.70
2018-11-04T05:00:57.228Z,8.80
2018-11-04T05:03:25.720Z,8.70
2018-11-04T05:05:54.224Z,8.80
2018-11-04T05:08:22.699Z,8.80
2018-11-04T05:10:51.180Z,8.80
2018-11-04T05:13:19.681Z,8.80
2018-11-04T05:15:48.175Z,8.80
2018-11-04T05:18:16.673Z,8.80
2018-11-04T05:20:45.169Z,8.80
2018-11-04T05:23:13.656Z,8.80
2018-11-04T05:25:42.144Z,8.80
2018-11-04T05:28:10.651Z,8.80
2018-11-04T05:30:39.116Z,8.80
2018-11-04T05:33:07.852Z,8.80
2018-11-04T05:35:36.364Z,8.80
2018-11-04T05:38:05.017Z,8.80
2018-11-04T05:40:33.551Z,8.80
2018-11-04T05:43:02.043Z,8.80
2018-11-04T05:45:30.572Z,8.80
2018-11-04T05:47:59.052Z,8.80
2018-11-04T05:50:27.543Z,8.80
2018-11-04T05:52:56.032Z,8.80
2018-11-04T05:55:24.532Z,8.80
2018-11-04T05:57:53.046Z,8.90
2018-11-04T06:00:21.548Z,8.90
2018-11-04T06:02:50.088Z,8.90
2018-11-04T06:05:18.584Z,8.90
2018-11-04T06:07:47.068Z,8.90
2018-11-04T06:10:15.568Z,8.90
2018-11-04T06:12:44.071Z,8.90
2018-11-04T06:15:12.586Z,8.90
2018-11-04T06:17:41.086Z,8.90
2018-11-04T06:20:10.635Z,8.90
2018-11-04T06:22:39.131Z,8.90
2018-11-04T06:25:07.875Z,8.90
2018-11-04T06:27:36.435Z,8.90
2018-11-04T06:30:07.131Z,9.00
2018-11-04T06:32:35.611Z,9.00
2018-11-04T06:35:04.412Z,9.00
2018-11-04T06:37:32.905Z,9.00
2018-11-04T06:40:01.375Z,9.00
2018-11-04T06:42:29.871Z,9.00
2018-11-04T06:44:58.359Z,9.00
2018-11-04T06:47:26.855Z,9.00
2018-11-04T06:49:55.407Z,9.00
2018-11-04T06:52:23.947Z,9.00
2018-11-04T06:54:52.491Z,9.00
2018-11-04T06:57:21.014Z,9.00
2018-11-04T06:59:49.529Z,9.00
2018-11-04T07:02:18.091Z,9.10
2018-11-04T07:04:46.639Z,9.10
2018-11-04T07:07:15.145Z,9.10
2018-11-04T07:09:43.695Z,9.10
2018-11-04T07:12:12.210Z,9.10
2018-11-04T07:14:40.727Z,9.10
2018-11-04T07:17:09.228Z,9.20
2018-11-04T07:19:37.718Z,9.20
2018-11-04T07:22:06.258Z,9.20
2018-11-04T07:24:34.762Z,9.20
2018-11-04T07:27:03.293Z,9.20
2018-11-04T07:29:31.834Z,9.20
2018-11-04T07:32:00.401Z,9.20
2018-11-04T07:34:28.866Z,9.20
2018-11-04T07:36:57.387Z,9.20
2018-11-04T07:39:25.960Z,9.20
2018-11-04T07:41:54.477Z,9.30
2018-11-04T07:44:23.045Z,9.30
2018-11-04T07:46:51.626Z,9.30
2018-11-04T07:49:20.154Z,9.30
2018-11-04T07:51:48.662Z,9.30
2018-11-04T07:54:17.194Z,9.30
2018-11-04T07:56:45.792Z,9.30
2018-11-04T07:59:14.342Z,9.30
2018-11-04T08:01:42.886Z,9.30
2018-11-04T08:04:11.460Z,9.40
2018-11-04T08:06:39.931Z,9.40
2018-11-04T08:09:09.326Z,9.40
2018-11-04T08:11:37.874Z,9.40
2018-11-04T08:14:06.370Z,9.40
2018-11-04T08:16:34.990Z,9.40
2018-11-04T08:19:03.497Z,9.40
2018-11-04T08:21:31.995Z,9.40
2018-11-04T08:24:00.486Z,9.40
2018-11-04T08:26:29.005Z,9.40
2018-11-04T08:28:57.501Z,9.40
2018-11-04T08:31:26.051Z,9.50
2018-11-04T08:33:54.554Z,9.50
2018-11-04T08:36:23.054Z,9.50
2018-11-04T08:38:51.705Z,9.50
2018-11-04T08:41:20.217Z,9.50
2018-11-04T08:43:48.709Z,9.50
2018-11-04T08:46:17.217Z,9.60
2018-11-04T08:48:45.730Z,9.60
2018-11-04T08:51:14.242Z,9.60
2018-11-04T08:53:42.753Z,9.60
2018-11-04T08:56:11.256Z,9.60
2018-11-04T08:58:39.790Z,9.60
2018-11-04T09:01:08.273Z,9.60
2018-11-04T09:03:36.813Z,9.60
2018-11-04T09:06:05.397Z,9.60
2018-11-04T09:08:33.865Z,9.70
2018-11-04T09:11:02.385Z,9.70
2018-11-04T09:13:30.890Z,9.70
2018-11-04T09:15:59.481Z,9.70
2018-11-04T09:18:28.001Z,9.70
2018-11-04T09:20:56.509Z,9.70
2018-11-04T09:23:25.042Z,9.70
2018-11-04T09:25:53.520Z,9.70
2018-11-04T09:28:22.012Z,9.70
2018-11-04T09:30:50.533Z,9.80
2018-11-04T09:33:19.041Z,9.80
2018-11-04T09:35:47.765Z,9.80
2018-11-04T09:38:16.121Z,9.80
2018-11-04T09:40:44.600Z,9.90
2018-11-04T09:43:13.062Z,9.90
2018-11-04T09:45:41.584Z,10.00
2018-11-04T09:48:10.101Z,10.00
2018-11-04T09:50:38.593Z,10.00
2018-11-04T09:53:07.113Z,10.00
2018-11-04T09:55:35.613Z,10.10
2018-11-04T09:58:04.118Z,10.10
2018-11-04T10:00:32.588Z,10.10
2018-11-04T10:03:01.140Z,10.10
2018-11-04T10:05:29.652Z,10.20
2018-11-04T10:07:58.157Z,10.20
2018-11-04T10:10:26.700Z,10.30
2018-11-04T10:12:55.228Z,10.30
2018-11-04T10:15:23.702Z,10.30
2018-11-04T10:17:52.196Z,10.30
2018-11-04T10:20:20.861Z,10.30
2018-11-04T10:22:49.213Z,10.30
2018-11-04T10:25:17.744Z,10.40
2018-11-04T10:27:46.232Z,10.30
2018-11-04T10:30:16.056Z,10.30
2018-11-04T10:32:44.900Z,10.40
2018-11-04T10:35:13.391Z,10.40
2018-11-04T10:37:42.381Z,10.40
2018-11-04T10:40:11.788Z,10.40
2018-11-04T10:42:40.300Z,10.40
2018-11-04T10:45:09.899Z,10.40
2018-11-04T10:47:38.697Z,10.40
2018-11-04T10:50:09.007Z,10.40
2018-11-04T10:52:37.544Z,10.40
2018-11-04T10:55:06.480Z,10.40
2018-11-04T10:57:35.024Z,10.40
2018-11-04T11:00:03.695Z,10.40
2018-11-04T11:02:32.215Z,10.50
2018-11-04T11:05:00.736Z,10.50
2018-11-04T11:07:29.313Z,10.50
2018-11-04T11:09:57.823Z,10.50
2018-11-04T11:12:26.636Z,10.60
2018-11-04T11:14:55.164Z,10.60
2018-11-04T11:17:23.668Z,10.60
2018-11-04T11:19:52.192Z,10.60
2018-11-04T11:22:20.775Z,10.60
2018-11-04T11:24:49.268Z,10.70
2018-11-04T11:27:17.787Z,10.60
2018-11-04T11:29:46.319Z,10.70
2018-11-04T11:32:14.861Z,10.70
2018-11-04T11:34:43.395Z,10.70
2018-11-04T11:37:11.938Z,10.70
2018-11-04T11:39:40.479Z,10.70
2018-11-04T11:42:08.995Z,10.70
2018-11-04T11:44:37.547Z,10.70
2018-11-04T11:47:06.219Z,10.70
2018-11-04T11:49:34.739Z,10.70
2018-11-04T11:52:03.315Z,10.70
2018-11-04T11:54:31.846Z,10.70
2018-11-04T11:57:00.398Z,10.70
2018-11-04T11:59:28.938Z,10.70
2018-11-04T12:01:57.498Z,10.70
2018-11-04T12:04:25.982Z,10.70
2018-11-04T12:06:54.534Z,10.70
2018-11-04T12:09:23.091Z,10.70
2018-11-04T12:11:51.634Z,10.80
2018-11-04T12:14:20.207Z,10.80
2018-11-04T12:16:48.708Z,10.80
2018-11-04T12:19:17.214Z,10.80
2018-11-04T12:21:45.753Z,10.80
2018-11-04T12:24:14.325Z,10.80
2018-11-04T12:26:42.848Z,10.80
2018-11-04T12:29:11.377Z,10.80
2018-11-04T12:31:39.944Z,10.80
2018-11-04T12:34:08.468Z,10.80
2018-11-04T12:36:36.969Z,10.80
2018-11-04T12:39:08.091Z,10.80
2018-11-04T12:41:36.581Z,10.80
2018-11-04T12:44:05.113Z,10.80
2018-11-04T12:46:33.625Z,10.90
2018-11-04T12:49:02.209Z,10.80
2018-11-04T12:51:30.717Z,10.80
2018-11-04T12:53:59.238Z,10.80
2018-11-04T12:56:27.760Z,10.80
2018-11-04T12:58:56.269Z,10.80
2018-11-04T13:01:24.771Z,10.80
2018-11-04T13:03:53.400Z,10.90
2018-11-04T13:06:21.957Z,10.80
2018-11-04T13:08:50.556Z,10.90
2018-11-04T13:11:19.107Z,10.90
2018-11-04T13:13:47.592Z,10.80
2018-11-04T13:16:16.081Z,10.90
2018-11-04T13:18:44.541Z,10.90
2018-11-04T13:21:13.076Z,10.90
2018-11-04T13:23:41.608Z,10.90
2018-11-04T13:26:10.080Z,10.90
2018-11-04T13:28:38.584Z,10.90
2018-11-04T13:31:07.077Z,10.90
2018-11-04T13:33:35.596Z,10.90
2018-11-04T13:36:04.194Z,10.90
2018-11-04T13:38:32.641Z,10.90
2018-11-04T13:41:01.133Z,10.90
2018-11-04T13:43:29.640Z,10.90
2018-11-04T13:45:58.128Z,10.90
2018-11-04T13:48:26.621Z,10.90
2018-11-04T13:50:55.120Z,10.90
2018-11-04T13:53:23.608Z,10.90
2018-11-04T13:55:52.100Z,10.90
2018-11-04T13:58:20.613Z,10.90
2018-11-04T14:00:49.084Z,10.90
2018-11-04T14:03:17.576Z,10.90
2018-11-04T14:05:46.101Z,10.90
2018-11-04T14:08:14.636Z,10.90
2018-11-04T14:10:43.156Z,10.90
2018-11-04T14:13:11.656Z,10.90
2018-11-04T14:15:40.136Z,10.90
2018-11-04T14:18:08.648Z,10.90
2018-11-04T14:20:37.164Z,10.90
2018-11-04T14:23:05.905Z,10.90
2018-11-04T14:25:34.388Z,10.90
2018-11-04T14:28:02.926Z,10.90
2018-11-04T14:30:31.432Z,10.90
2018-11-04T14:32:59.965Z,10.90
2018-11-04T14:35:28.482Z,10.90
2018-11-04T14:37:56.956Z,10.90
2018-11-04T14:40:25.464Z,10.90
2018-11-04T14:42:53.976Z,10.90
2018-11-04T14:45:22.463Z,10.90
2018-11-04T14:47:50.999Z,10.90
2018-11-04T14:50:19.935Z,10.90
2018-11-04T14:52:48.989Z,10.90
2018-11-04T14:55:17.448Z,10.90
2018-11-04T14:57:45.947Z,10.90
2018-11-04T15:00:15.727Z,10.80
2018-11-04T15:02:44.209Z,10.80
2018-11-04T15:05:12.755Z,10.80
2018-11-04T15:07:41.258Z,10.90
2018-11-04T15:10:12.023Z,10.90
2018-11-04T15:12:40.615Z,10.80
2018-11-04T15:15:11.663Z,10.90
2018-11-04T15:17:40.546Z,10.90
2018-11-04T15:20:09.734Z,10.80
2018-11-04T15:22:46.646Z,10.90
2018-11-04T15:25:16.143Z,10.80
2018-11-04T15:27:44.933Z,10.80
2018-11-04T15:30:13.447Z,10.80
2018-11-04T15:32:42.290Z,10.90
2018-11-04T15:35:11.315Z,10.80
2018-11-04T15:37:39.835Z,10.80
2018-11-04T15:40:10.047Z,10.80
2018-11-04T15:42:38.518Z,10.80
2018-11-04T15:45:08.366Z,10.80
2018-11-04T15:47:36.915Z,10.80
2018-11-04T15:50:07.022Z,10.80
2018-11-04T15:52:35.670Z,10.80
2018-11-04T15:55:04.384Z,10.80
2018-11-04T15:57:32.886Z,10.80
2018-11-04T16:00:01.418Z,10.80
2018-11-04T16:02:30.051Z,10.80
2018-11-04T16:04:58.699Z,10.80
2018-11-04T16:07:27.278Z,10.80
2018-11-04T16:09:55.787Z,10.80
2018-11-04T16:12:24.429Z,10.80
2018-11-04T16:14:53.121Z,10.80
2018-11-04T16:17:21.626Z,10.80
2018-11-04T16:19:50.238Z,10.80
2018-11-04T16:22:18.910Z,10.80
2018-11-04T16:24:47.429Z,10.80
2018-11-04T16:27:16.037Z,10.80
2018-11-04T16:29:44.558Z,10.70
2018-11-04T16:32:13.177Z,10.80
2018-11-04T16:34:41.710Z,10.80
2018-11-04T16:37:10.286Z,10.70
2018-11-04T16:39:38.913Z,10.80
2018-11-04T16:42:07.546Z,10.70
2018-11-04T16:44:36.110Z,10.70
2018-11-04T16:47:04.694Z,10.70
2018-11-04T16:49:33.262Z,10.70
2018-11-04T16:52:01.802Z,10.70
2018-11-04T16:54:30.314Z,10.70
2018-11-04T16:56:58.865Z,10.80
2018-11-04T16:59:27.418Z,10.80
2018-11-04T17:01:55.974Z,10.70
2018-11-04T17:04:24.803Z,10.80
2018-11-04T17:06:53.169Z,10.80
2018-11-04T17:09:21.709Z,10.80
2018-11-04T17:11:50.250Z,10.80
2018-11-04T17:14:18.766Z,10.80
2018-11-04T17:16:47.301Z,10.80
2018-11-04T17:19:15.837Z,10.80
2018-11-04T17:21:44.454Z,10.80
2018-11-04T17:24:12.986Z,10.80
2018-11-04T17:26:41.522Z,10.80
2018-11-04T17:29:10.501Z,10.80
2018-11-04T17:31:39.030Z,10.80
2018-11-04T17:34:07.569Z,10.80
2018-11-04T17:36:36.439Z,10.80
2018-11-04T17:39:07.678Z,10.80
2018-11-04T17:41:36.213Z,10.80
2018-11-04T17:44:05.105Z,10.80
2018-11-04T17:46:33.693Z,10.80
2018-11-04T17:49:02.253Z,10.80
2018-11-04T17:51:30.757Z,10.80
2018-11-04T17:53:59.321Z,10.80
2018-11-04T17:56:27.865Z,10.90
2018-11-04T17:58:56.432Z,10.90
2018-11-04T18:01:25.021Z,10.80
2018-11-04T18:03:53.532Z,10.90
2018-11-04T18:06:22.196Z,10.90
2018-11-04T18:08:50.869Z,10.90
2018-11-04T18:11:19.400Z,10.90
2018-11-04T18:13:47.984Z,10.90
2018-11-04T18:16:16.452Z,10.90
2018-11-04T18:18:44.966Z,10.90
2018-11-04T18:21:13.506Z,10.90
2018-11-04T18:23:42.047Z,10.90
2018-11-04T18:26:10.771Z,10.90
2018-11-04T18:28:39.251Z,10.90
2018-11-04T18:31:07.791Z,10.90
2018-11-04T18:33:36.327Z,11.00
2018-11-04T18:36:05.050Z,11.00
2018-11-04T18:38:33.583Z,11.00
2018-11-04T18:41:02.091Z,11.00
2018-11-04T18:43:30.660Z,11.00
2018-11-04T18:45:59.194Z,11.00
2018-11-04T18:48:27.841Z,11.00
2018-11-04T18:50:56.366Z,11.00
2018-11-04T18:53:24.894Z,11.00
2018-11-04T18:55:53.459Z,11.10
2018-11-04T18:58:21.931Z,11.10
2018-11-04T19:00:50.426Z,11.10
2018-11-04T19:03:18.948Z,11.10
2018-11-04T19:05:47.506Z,11.10
2018-11-04T19:08:16.022Z,11.10
2018-11-04T19:10:44.530Z,11.20
2018-11-04T19:13:13.062Z,11.20
2018-11-04T19:15:41.594Z,11.20
2018-11-04T19:18:10.139Z,11.20
2018-11-04T19:20:38.694Z,11.20
2018-11-04T19:23:07.235Z,11.30
2018-11-04T19:25:35.738Z,11.30
2018-11-04T19:28:04.266Z,11.30
2018-11-04T19:30:32.786Z,11.30
2018-11-04T19:33:01.554Z,11.30
2018-11-04T19:35:30.066Z,11.30
2018-11-04T19:37:58.570Z,11.30
2018-11-04T19:40:27.066Z,11.30
2018-11-04T19:42:55.614Z,11.40
2018-11-04T19:45:24.170Z,11.40
2018-11-04T19:47:52.689Z,11.40
2018-11-04T19:50:21.214Z,11.40
2018-11-04T19:52:49.730Z,11.40
2018-11-04T19:55:18.213Z,11.40
2018-11-04T19:57:46.838Z,11.40
2018-11-04T20:00:15.363Z,11.40
2018-11-04T20:02:43.861Z,11.40
2018-11-04T20:05:13.112Z,11.50
2018-11-04T20:07:41.701Z,11.50
2018-11-04T20:10:14.433Z,11.50
2018-11-04T20:12:48.241Z,11.50
2018-11-04T20:15:16.777Z,11.50
2018-11-04T20:17:46.073Z,11.50
2018-11-04T20:20:19.340Z,11.50
2018-11-04T20:22:47.853Z,11.50
2018-11-04T20:25:21.840Z,11.50
2018-11-04T20:27:50.357Z,11.50
2018-11-04T20:30:18.937Z,11.50
2018-11-04T20:32:52.948Z,11.60
2018-11-04T20:35:21.480Z,11.50
2018-11-04T20:37:50.024Z,11.60
2018-11-04T20:40:24.052Z,11.60
2018-11-04T20:42:52.632Z,11.60
2018-11-04T20:45:21.255Z,11.60
2018-11-04T20:47:55.116Z,11.60
2018-11-04T20:50:29.024Z,11.60
2018-11-04T20:52:57.612Z,11.60
2018-11-04T20:55:31.340Z,11.60
2018-11-04T20:58:00.033Z,11.60
2018-11-04T21:00:28.544Z,11.60
2018-11-04T21:02:57.171Z,11.60
2018-11-04T21:05:25.684Z,11.60
2018-11-04T21:07:54.448Z,11.60
2018-11-04T21:10:22.931Z,11.60
2018-11-04T21:12:51.630Z,11.60
2018-11-04T21:15:20.100Z,11.70
2018-11-04T21:17:48.631Z,11.70
2018-11-04T21:20:17.107Z,11.70
2018-11-04T21:22:45.623Z,11.90
2018-11-04T21:25:14.213Z,11.80
2018-11-04T21:27:42.635Z,11.70
2018-11-04T21:30:12.451Z,11.70
2018-11-04T21:32:41.159Z,11.70
2018-11-04T21:35:09.715Z,11.70
2018-11-04T21:37:38.215Z,11.70
2018-11-04T21:40:08.075Z,11.70
2018-11-04T21:42:36.843Z,11.70
2018-11-04T21:45:06.743Z,11.70
2018-11-04T21:47:35.219Z,11.70
2018-11-04T21:50:03.795Z,11.70
2018-11-04T21:52:32.279Z,11.70
2018-11-04T21:55:00.760Z,11.70
2018-11-04T21:57:29.237Z,11.70
2018-11-04T21:59:57.722Z,11.70
2018-11-04T22:02:26.258Z,11.70
2018-11-04T22:04:54.747Z,11.70
2018-11-04T22:07:23.247Z,11.70
2018-11-04T22:09:51.715Z,11.70
2018-11-04T22:12:20.203Z,11.70
2018-11-04T22:14:48.735Z,11.70
2018-11-04T22:17:17.247Z,11.80
2018-11-04T22:19:45.763Z,11.80
2018-11-04T22:22:14.308Z,11.80
2018-11-04T22:24:42.820Z,11.80
2018-11-04T22:27:11.303Z,11.80
2018-11-04T22:29:39.814Z,11.80
2018-11-04T22:32:08.311Z,11.80
2018-11-04T22:34:36.819Z,11.80
2018-11-04T22:37:05.746Z,11.80
2018-11-04T22:39:34.234Z,11.80
2018-11-04T22:42:02.786Z,11.80
2018-11-04T22:44:31.458Z,11.80
2018-11-04T22:46:59.959Z,11.80
2018-11-04T22:49:28.458Z,11.80
2018-11-04T22:51:56.953Z,11.80
2018-11-04T22:54:25.446Z,11.80
2018-11-04T22:56:53.931Z,11.90
2018-11-04T22:59:22.543Z,11.90
2018-11-04T23:01:51.083Z,11.90
2018-11-04T23:04:23.816Z,11.90
2018-11-04T23:06:52.324Z,11.90
2018-11-04T23:09:20.802Z,11.90
2018-11-04T23:11:49.309Z,11.90
2018-11-04T23:14:18.023Z,11.90
2018-11-04T23:16:46.426Z,11.90
2018-11-04T23:19:14.965Z,11.90
2018-11-04T23:21:43.434Z,12.00
2018-11-04T23:24:11.962Z,11.90
2018-11-04T23:26:40.486Z,11.90
2018-11-04T23:29:08.978Z,11.90
2018-11-04T23:31:37.473Z,12.00
2018-11-04T23:34:06.001Z,12.00
2018-11-04T23:36:34.473Z,12.00
2018-11-04T23:39:03.001Z,12.00
2018-11-04T23:41:31.505Z,12.00
2018-11-04T23:44:00.018Z,12.00
2018-11-04T23:46:28.513Z,12.00
2018-11-04T23:48:57.005Z,12.00
2018-11-04T23:51:25.581Z,12.00
2018-11-04T23:53:54.061Z,12.00
2018-11-04T23:56:22.537Z,12.00
2018-11-04T23:58:51.001Z,12.00
